sensor_id;sensor_type;location;lat;lon;timestamp;temperature;humidity
68480;DHT22;55469;48.934;12.050;2022-10-16T00:01:30;15.20;93.30
68480;DHT22;55469;48.934;12.050;2022-10-16T00:03:58;15.20;93.20
68480;DHT22;55469;48.934;12.050;2022-10-16T00:06:25;15.20;93.20
68480;DHT22;55469;48.934;12.050;2022-10-16T00:08:52;15.20;93.20
68480;DHT22;55469;48.934;12.050;2022-10-16T00:11:29;15.10;93.20
68480;DHT22;55469;48.934;12.050;2022-10-16T00:14:00;15.10;93.20
68480;DHT22;55469;48.934;12.050;2022-10-16T00:16:27;15.20;93.20
68480;DHT22;55469;48.934;12.050;2022-10-16T00:18:54;15.20;93.20
68480;DHT22;55469;48.934;12.050;2022-10-16T00:21:23;15.10;93.20
68480;DHT22;55469;48.934;12.050;2022-10-16T00:23:52;15.10;93.20
68480;DHT22;55469;48.934;12.050;2022-10-16T00:26:19;15.10;93.20
68480;DHT22;55469;48.934;12.050;2022-10-16T00:28:49;15.10;93.20
68480;DHT22;55469;48.934;12.050;2022-10-16T00:31:16;15.10;93.20
68480;DHT22;55469;48.934;12.050;2022-10-16T00:33:43;15.10;93.20
68480;DHT22;55469;48.934;12.050;2022-10-16T00:36:13;15.10;93.30
68480;DHT22;55469;48.934;12.050;2022-10-16T00:38:41;15.10;93.30
68480;DHT22;55469;48.934;12.050;2022-10-16T00:41:10;15.10;93.20
68480;DHT22;55469;48.934;12.050;2022-10-16T00:43:46;15.10;93.30
68480;DHT22;55469;48.934;12.050;2022-10-16T00:46:23;15.10;93.20
68480;DHT22;55469;48.934;12.050;2022-10-16T00:49:03;15.10;93.30
68480;DHT22;55469;48.934;12.050;2022-10-16T00:51:42;15.00;93.30
68480;DHT22;55469;48.934;12.050;2022-10-16T00:54:24;15.10;93.20
68480;DHT22;55469;48.934;12.050;2022-10-16T00:57:12;15.10;93.30
68480;DHT22;55469;48.934;12.050;2022-10-16T00:59:40;15.00;93.30
68480;DHT22;55469;48.934;12.050;2022-10-16T01:02:09;15.00;93.30
68480;DHT22;55469;48.934;12.050;2022-10-16T01:04:46;15.00;93.30
68480;DHT22;55469;48.934;12.050;2022-10-16T01:07:16;15.00;93.30
68480;DHT22;55469;48.934;12.050;2022-10-16T01:12:43;15.00;93.30
68480;DHT22;55469;48.934;12.050;2022-10-16T01:15:19;15.00;93.40
68480;DHT22;55469;48.934;12.050;2022-10-16T01:18:19;15.00;93.30
68480;DHT22;55469;48.934;12.050;2022-10-16T01:21:03;15.00;93.30
68480;DHT22;55469;48.934;12.050;2022-10-16T01:24:08;15.00;93.30
68480;DHT22;55469;48.934;12.050;2022-10-16T01:29:53;15.00;93.40
68480;DHT22;55469;48.934;12.050;2022-10-16T01:32:32;15.00;93.40
68480;DHT22;55469;48.934;12.050;2022-10-16T01:35:20;15.00;93.30
68480;DHT22;55469;48.934;12.050;2022-10-16T01:40:26;15.00;93.30
68480;DHT22;55469;48.934;12.050;2022-10-16T01:42:58;15.00;93.30
68480;DHT22;55469;48.934;12.050;2022-10-16T01:45:28;15.00;93.40
68480;DHT22;55469;48.934;12.050;2022-10-16T01:47:55;15.00;93.40
68480;DHT22;55469;48.934;12.050;2022-10-16T01:50:22;14.90;93.30
68480;DHT22;55469;48.934;12.050;2022-10-16T01:52:51;15.00;93.40
68480;DHT22;55469;48.934;12.050;2022-10-16T01:55:25;14.90;93.30
68480;DHT22;55469;48.934;12.050;2022-10-16T01:57:54;14.90;93.30
68480;DHT22;55469;48.934;12.050;2022-10-16T02:00:21;14.90;93.30
68480;DHT22;55469;48.934;12.050;2022-10-16T02:02:53;14.90;93.30
68480;DHT22;55469;48.934;12.050;2022-10-16T02:05:30;14.90;93.30
68480;DHT22;55469;48.934;12.050;2022-10-16T02:07:57;14.90;93.30
68480;DHT22;55469;48.934;12.050;2022-10-16T02:10:24;14.90;93.40
68480;DHT22;55469;48.934;12.050;2022-10-16T02:12:59;14.90;93.40
68480;DHT22;55469;48.934;12.050;2022-10-16T02:15:38;14.90;93.40
68480;DHT22;55469;48.934;12.050;2022-10-16T02:18:05;14.90;93.40
68480;DHT22;55469;48.934;12.050;2022-10-16T02:20:56;14.90;93.40
68480;DHT22;55469;48.934;12.050;2022-10-16T02:26:23;14.90;93.40
68480;DHT22;55469;48.934;12.050;2022-10-16T02:29:08;14.80;93.40
68480;DHT22;55469;48.934;12.050;2022-10-16T02:31:41;14.90;93.40
68480;DHT22;55469;48.934;12.050;2022-10-16T02:34:09;14.80;93.40
68480;DHT22;55469;48.934;12.050;2022-10-16T02:36:38;14.80;93.40
68480;DHT22;55469;48.934;12.050;2022-10-16T02:39:05;14.80;93.50
68480;DHT22;55469;48.934;12.050;2022-10-16T02:41:32;14.80;93.40
68480;DHT22;55469;48.934;12.050;2022-10-16T02:44:02;14.80;93.40
68480;DHT22;55469;48.934;12.050;2022-10-16T02:46:28;14.80;93.40
68480;DHT22;55469;48.934;12.050;2022-10-16T02:48:54;14.80;93.50
68480;DHT22;55469;48.934;12.050;2022-10-16T02:51:20;14.80;93.40
68480;DHT22;55469;48.934;12.050;2022-10-16T02:53:45;14.80;93.40
68480;DHT22;55469;48.934;12.050;2022-10-16T02:56:17;14.80;93.50
68480;DHT22;55469;48.934;12.050;2022-10-16T02:58:43;14.80;93.50
68480;DHT22;55469;48.934;12.050;2022-10-16T03:01:09;14.80;93.40
68480;DHT22;55469;48.934;12.050;2022-10-16T03:03:35;14.80;93.50
68480;DHT22;55469;48.934;12.050;2022-10-16T03:06:00;14.80;93.50
68480;DHT22;55469;48.934;12.050;2022-10-16T03:08:26;14.80;93.50
68480;DHT22;55469;48.934;12.050;2022-10-16T03:10:54;14.70;93.50
68480;DHT22;55469;48.934;12.050;2022-10-16T03:13:20;14.70;93.50
68480;DHT22;55469;48.934;12.050;2022-10-16T03:15:46;14.70;93.50
68480;DHT22;55469;48.934;12.050;2022-10-16T03:18:26;14.70;93.50
68480;DHT22;55469;48.934;12.050;2022-10-16T03:20:52;14.70;93.50
68480;DHT22;55469;48.934;12.050;2022-10-16T03:23:17;14.70;93.50
68480;DHT22;55469;48.934;12.050;2022-10-16T03:25:43;14.70;93.50
68480;DHT22;55469;48.934;12.050;2022-10-16T03:28:09;14.70;93.50
68480;DHT22;55469;48.934;12.050;2022-10-16T03:30:35;14.70;93.50
68480;DHT22;55469;48.934;12.050;2022-10-16T03:33:03;14.70;93.50
68480;DHT22;55469;48.934;12.050;2022-10-16T03:35:29;14.70;93.50
68480;DHT22;55469;48.934;12.050;2022-10-16T03:37:58;14.70;93.50
68480;DHT22;55469;48.934;12.050;2022-10-16T03:40:23;14.70;93.50
68480;DHT22;55469;48.934;12.050;2022-10-16T03:42:49;14.70;93.50
68480;DHT22;55469;48.934;12.050;2022-10-16T03:45:15;14.70;93.50
68480;DHT22;55469;48.934;12.050;2022-10-16T03:47:41;14.70;93.50
68480;DHT22;55469;48.934;12.050;2022-10-16T03:50:07;14.70;93.50
68480;DHT22;55469;48.934;12.050;2022-10-16T03:52:33;14.70;93.50
68480;DHT22;55469;48.934;12.050;2022-10-16T03:54:59;14.70;93.50
68480;DHT22;55469;48.934;12.050;2022-10-16T03:57:25;14.70;93.50
68480;DHT22;55469;48.934;12.050;2022-10-16T03:59:51;14.60;93.50
68480;DHT22;55469;48.934;12.050;2022-10-16T04:02:16;14.60;93.50
68480;DHT22;55469;48.934;12.050;2022-10-16T04:04:42;14.60;93.50
68480;DHT22;55469;48.934;12.050;2022-10-16T04:07:08;14.60;93.50
68480;DHT22;55469;48.934;12.050;2022-10-16T04:09:34;14.60;93.50
68480;DHT22;55469;48.934;12.050;2022-10-16T04:11:59;14.60;93.60
68480;DHT22;55469;48.934;12.050;2022-10-16T04:14:25;14.60;93.60
68480;DHT22;55469;48.934;12.050;2022-10-16T04:16:51;14.60;93.50
68480;DHT22;55469;48.934;12.050;2022-10-16T04:19:16;14.60;93.60
68480;DHT22;55469;48.934;12.050;2022-10-16T04:21:42;14.60;93.50
68480;DHT22;55469;48.934;12.050;2022-10-16T04:24:08;14.60;93.60
68480;DHT22;55469;48.934;12.050;2022-10-16T04:26:34;14.60;93.60
68480;DHT22;55469;48.934;12.050;2022-10-16T04:28:59;14.60;93.60
68480;DHT22;55469;48.934;12.050;2022-10-16T04:31:25;14.60;93.60
68480;DHT22;55469;48.934;12.050;2022-10-16T04:33:51;14.60;93.60
68480;DHT22;55469;48.934;12.050;2022-10-16T04:36:16;14.60;93.60
68480;DHT22;55469;48.934;12.050;2022-10-16T04:38:42;14.50;93.60
68480;DHT22;55469;48.934;12.050;2022-10-16T04:41:08;14.50;93.60
68480;DHT22;55469;48.934;12.050;2022-10-16T04:43:34;14.50;93.60
68480;DHT22;55469;48.934;12.050;2022-10-16T04:45:59;14.50;93.60
68480;DHT22;55469;48.934;12.050;2022-10-16T04:48:26;14.50;93.60
68480;DHT22;55469;48.934;12.050;2022-10-16T04:50:52;14.50;93.60
68480;DHT22;55469;48.934;12.050;2022-10-16T04:53:17;14.50;93.60
68480;DHT22;55469;48.934;12.050;2022-10-16T04:55:43;14.50;93.60
68480;DHT22;55469;48.934;12.050;2022-10-16T04:58:09;14.50;93.60
68480;DHT22;55469;48.934;12.050;2022-10-16T05:00:35;14.50;93.60
68480;DHT22;55469;48.934;12.050;2022-10-16T05:03:04;14.50;93.60
68480;DHT22;55469;48.934;12.050;2022-10-16T05:05:34;14.50;93.60
68480;DHT22;55469;48.934;12.050;2022-10-16T05:08:01;14.50;93.60
68480;DHT22;55469;48.934;12.050;2022-10-16T05:10:26;14.50;93.60
68480;DHT22;55469;48.934;12.050;2022-10-16T05:12:52;14.50;93.60
68480;DHT22;55469;48.934;12.050;2022-10-16T05:15:19;14.50;93.60
68480;DHT22;55469;48.934;12.050;2022-10-16T05:17:45;14.50;93.60
68480;DHT22;55469;48.934;12.050;2022-10-16T05:20:11;14.40;93.60
68480;DHT22;55469;48.934;12.050;2022-10-16T05:22:37;14.50;93.60
68480;DHT22;55469;48.934;12.050;2022-10-16T05:25:03;14.50;93.60
68480;DHT22;55469;48.934;12.050;2022-10-16T05:27:29;14.40;93.60
68480;DHT22;55469;48.934;12.050;2022-10-16T05:29:55;14.40;93.60
68480;DHT22;55469;48.934;12.050;2022-10-16T05:32:21;14.40;93.60
68480;DHT22;55469;48.934;12.050;2022-10-16T05:34:46;14.40;93.60
68480;DHT22;55469;48.934;12.050;2022-10-16T05:37:13;14.40;93.60
68480;DHT22;55469;48.934;12.050;2022-10-16T05:39:39;14.50;93.60
68480;DHT22;55469;48.934;12.050;2022-10-16T05:42:05;14.40;93.60
68480;DHT22;55469;48.934;12.050;2022-10-16T05:44:31;14.40;93.60
68480;DHT22;55469;48.934;12.050;2022-10-16T05:46:57;14.40;93.60
68480;DHT22;55469;48.934;12.050;2022-10-16T05:49:23;14.40;93.60
68480;DHT22;55469;48.934;12.050;2022-10-16T05:51:49;14.40;93.60
68480;DHT22;55469;48.934;12.050;2022-10-16T05:54:15;14.40;93.60
68480;DHT22;55469;48.934;12.050;2022-10-16T05:56:41;14.40;93.60
68480;DHT22;55469;48.934;12.050;2022-10-16T05:59:06;14.40;93.60
68480;DHT22;55469;48.934;12.050;2022-10-16T06:01:35;14.40;93.60
68480;DHT22;55469;48.934;12.050;2022-10-16T06:04:01;14.40;93.60
68480;DHT22;55469;48.934;12.050;2022-10-16T06:06:27;14.40;93.60
68480;DHT22;55469;48.934;12.050;2022-10-16T06:08:57;14.40;93.60
68480;DHT22;55469;48.934;12.050;2022-10-16T06:11:27;14.40;93.60
68480;DHT22;55469;48.934;12.050;2022-10-16T06:13:56;14.40;93.60
68480;DHT22;55469;48.934;12.050;2022-10-16T06:16:24;14.40;93.50
68480;DHT22;55469;48.934;12.050;2022-10-16T06:18:54;14.40;93.50
68480;DHT22;55469;48.934;12.050;2022-10-16T06:21:26;14.40;93.60
68480;DHT22;55469;48.934;12.050;2022-10-16T06:23:55;14.40;93.50
68480;DHT22;55469;48.934;12.050;2022-10-16T06:26:24;14.40;93.60
68480;DHT22;55469;48.934;12.050;2022-10-16T06:28:51;14.40;93.60
68480;DHT22;55469;48.934;12.050;2022-10-16T06:31:19;14.40;93.50
68480;DHT22;55469;48.934;12.050;2022-10-16T06:33:45;14.40;93.50
68480;DHT22;55469;48.934;12.050;2022-10-16T06:36:15;14.40;93.50
68480;DHT22;55469;48.934;12.050;2022-10-16T06:38:42;14.40;93.50
68480;DHT22;55469;48.934;12.050;2022-10-16T06:41:12;14.40;93.50
68480;DHT22;55469;48.934;12.050;2022-10-16T06:43:39;14.40;93.50
68480;DHT22;55469;48.934;12.050;2022-10-16T06:46:07;14.40;93.50
68480;DHT22;55469;48.934;12.050;2022-10-16T06:48:34;14.40;93.50
68480;DHT22;55469;48.934;12.050;2022-10-16T06:51:03;14.40;93.50
68480;DHT22;55469;48.934;12.050;2022-10-16T06:53:37;14.40;93.50
68480;DHT22;55469;48.934;12.050;2022-10-16T06:56:12;14.40;93.40
68480;DHT22;55469;48.934;12.050;2022-10-16T06:58:40;14.40;93.50
68480;DHT22;55469;48.934;12.050;2022-10-16T07:01:06;14.40;93.50
68480;DHT22;55469;48.934;12.050;2022-10-16T07:03:33;14.40;93.40
68480;DHT22;55469;48.934;12.050;2022-10-16T07:06:02;14.40;93.40
68480;DHT22;55469;48.934;12.050;2022-10-16T07:08:38;14.40;93.40
68480;DHT22;55469;48.934;12.050;2022-10-16T07:11:07;14.40;93.40
68480;DHT22;55469;48.934;12.050;2022-10-16T07:13:38;14.40;93.40
68480;DHT22;55469;48.934;12.050;2022-10-16T07:16:11;14.40;93.40
68480;DHT22;55469;48.934;12.050;2022-10-16T07:18:41;14.40;93.30
68480;DHT22;55469;48.934;12.050;2022-10-16T07:23:38;14.40;93.30
68480;DHT22;55469;48.934;12.050;2022-10-16T07:26:05;14.40;93.30
68480;DHT22;55469;48.934;12.050;2022-10-16T07:28:32;14.40;93.30
68480;DHT22;55469;48.934;12.050;2022-10-16T07:31:03;14.40;93.30
68480;DHT22;55469;48.934;12.050;2022-10-16T07:33:30;14.40;93.30
68480;DHT22;55469;48.934;12.050;2022-10-16T07:35:56;14.40;93.30
68480;DHT22;55469;48.934;12.050;2022-10-16T07:38:23;14.40;93.70
68480;DHT22;55469;48.934;12.050;2022-10-16T07:41:05;14.40;93.20
68480;DHT22;55469;48.934;12.050;2022-10-16T07:43:32;14.40;93.20
68480;DHT22;55469;48.934;12.050;2022-10-16T07:45:59;14.50;93.20
68480;DHT22;55469;48.934;12.050;2022-10-16T07:48:28;14.50;93.10
68480;DHT22;55469;48.934;12.050;2022-10-16T07:50:59;14.50;93.10
68480;DHT22;55469;48.934;12.050;2022-10-16T07:53:29;14.50;93.00
68480;DHT22;55469;48.934;12.050;2022-10-16T07:56:03;14.50;93.00
68480;DHT22;55469;48.934;12.050;2022-10-16T07:58:31;14.60;93.00
68480;DHT22;55469;48.934;12.050;2022-10-16T08:00:57;14.60;92.90
68480;DHT22;55469;48.934;12.050;2022-10-16T08:03:24;14.60;92.90
68480;DHT22;55469;48.934;12.050;2022-10-16T08:05:51;14.60;92.80
68480;DHT22;55469;48.934;12.050;2022-10-16T08:08:17;14.70;92.80
68480;DHT22;55469;48.934;12.050;2022-10-16T08:10:44;14.70;92.80
68480;DHT22;55469;48.934;12.050;2022-10-16T08:13:10;14.70;92.80
68480;DHT22;55469;48.934;12.050;2022-10-16T08:15:36;14.70;92.70
68480;DHT22;55469;48.934;12.050;2022-10-16T08:18:04;14.80;92.80
68480;DHT22;55469;48.934;12.050;2022-10-16T08:20:31;14.70;92.70
68480;DHT22;55469;48.934;12.050;2022-10-16T08:22:59;14.80;92.70
68480;DHT22;55469;48.934;12.050;2022-10-16T08:25:26;14.80;92.60
68480;DHT22;55469;48.934;12.050;2022-10-16T08:27:51;14.80;92.60
68480;DHT22;55469;48.934;12.050;2022-10-16T08:30:18;14.80;92.60
68480;DHT22;55469;48.934;12.050;2022-10-16T08:32:45;14.90;92.60
68480;DHT22;55469;48.934;12.050;2022-10-16T08:35:12;14.90;92.50
68480;DHT22;55469;48.934;12.050;2022-10-16T08:37:38;14.90;92.50
68480;DHT22;55469;48.934;12.050;2022-10-16T08:40:06;14.90;92.50
68480;DHT22;55469;48.934;12.050;2022-10-16T08:48:58;15.00;92.50
68480;DHT22;55469;48.934;12.050;2022-10-16T08:51:30;15.00;92.50
68480;DHT22;55469;48.934;12.050;2022-10-16T08:54:01;15.00;92.40
68480;DHT22;55469;48.934;12.050;2022-10-16T08:56:29;15.10;92.30
68480;DHT22;55469;48.934;12.050;2022-10-16T08:58:55;15.10;92.30
68480;DHT22;55469;48.934;12.050;2022-10-16T09:01:25;15.10;92.30
68480;DHT22;55469;48.934;12.050;2022-10-16T09:08:03;15.20;92.20
68480;DHT22;55469;48.934;12.050;2022-10-16T09:11:13;15.20;92.20
68480;DHT22;55469;48.934;12.050;2022-10-16T09:16:53;15.30;92.20
68480;DHT22;55469;48.934;12.050;2022-10-16T09:19:39;15.30;92.10
68480;DHT22;55469;48.934;12.050;2022-10-16T09:22:15;15.30;92.10
68480;DHT22;55469;48.934;12.050;2022-10-16T09:24:42;15.40;92.00
68480;DHT22;55469;48.934;12.050;2022-10-16T09:27:14;15.40;92.00
68480;DHT22;55469;48.934;12.050;2022-10-16T09:29:40;15.40;92.00
68480;DHT22;55469;48.934;12.050;2022-10-16T09:32:15;15.50;92.00
68480;DHT22;55469;48.934;12.050;2022-10-16T09:34:55;15.40;92.00
68480;DHT22;55469;48.934;12.050;2022-10-16T09:37:24;15.50;92.00
68480;DHT22;55469;48.934;12.050;2022-10-16T09:39:53;15.60;92.00
68480;DHT22;55469;48.934;12.050;2022-10-16T09:42:31;15.60;92.00
68480;DHT22;55469;48.934;12.050;2022-10-16T09:44:58;15.60;92.00
68480;DHT22;55469;48.934;12.050;2022-10-16T09:47:26;15.60;92.00
68480;DHT22;55469;48.934;12.050;2022-10-16T09:50:03;15.70;91.90
68480;DHT22;55469;48.934;12.050;2022-10-16T09:52:32;15.70;91.90
68480;DHT22;55469;48.934;12.050;2022-10-16T09:55:12;15.70;91.90
68480;DHT22;55469;48.934;12.050;2022-10-16T09:57:53;15.70;91.80
68480;DHT22;55469;48.934;12.050;2022-10-16T10:00:21;15.70;91.80
68480;DHT22;55469;48.934;12.050;2022-10-16T10:02:48;15.80;91.80
68480;DHT22;55469;48.934;12.050;2022-10-16T10:05:25;15.80;91.80
68480;DHT22;55469;48.934;12.050;2022-10-16T10:08:03;15.90;91.70
68480;DHT22;55469;48.934;12.050;2022-10-16T10:10:39;15.90;91.80
68480;DHT22;55469;48.934;12.050;2022-10-16T10:13:20;15.90;91.70
68480;DHT22;55469;48.934;12.050;2022-10-16T10:15:48;15.90;91.70
68480;DHT22;55469;48.934;12.050;2022-10-16T10:18:18;16.00;91.70
68480;DHT22;55469;48.934;12.050;2022-10-16T10:21:00;16.00;91.60
68480;DHT22;55469;48.934;12.050;2022-10-16T10:23:28;16.10;91.50
68480;DHT22;55469;48.934;12.050;2022-10-16T10:26:15;16.10;91.50
68480;DHT22;55469;48.934;12.050;2022-10-16T10:34:32;16.20;91.70
68480;DHT22;55469;48.934;12.050;2022-10-16T10:43:37;16.30;91.30
68480;DHT22;55469;48.934;12.050;2022-10-16T10:46:15;16.40;91.20
68480;DHT22;55469;48.934;12.050;2022-10-16T10:54:51;16.40;91.20
68480;DHT22;55469;48.934;12.050;2022-10-16T11:03:37;16.40;91.30
68480;DHT22;55469;48.934;12.050;2022-10-16T11:09:18;16.50;91.30
68480;DHT22;55469;48.934;12.050;2022-10-16T11:11:55;16.60;91.20
68480;DHT22;55469;48.934;12.050;2022-10-16T11:14:34;16.60;91.10
68480;DHT22;55469;48.934;12.050;2022-10-16T11:17:38;16.60;91.10
68480;DHT22;55469;48.934;12.050;2022-10-16T11:20:29;16.60;91.10
68480;DHT22;55469;48.934;12.050;2022-10-16T11:23:49;16.60;91.20
68480;DHT22;55469;48.934;12.050;2022-10-16T11:25:49;16.60;91.20
68480;DHT22;55469;48.934;12.050;2022-10-16T11:28:25;16.60;91.20
68480;DHT22;55469;48.934;12.050;2022-10-16T11:34:01;16.60;91.20
68480;DHT22;55469;48.934;12.050;2022-10-16T11:36:41;16.70;91.20
68480;DHT22;55469;48.934;12.050;2022-10-16T11:39:20;16.80;91.10
68480;DHT22;55469;48.934;12.050;2022-10-16T11:41:53;16.80;91.00
68480;DHT22;55469;48.934;12.050;2022-10-16T11:44:48;16.90;91.00
68480;DHT22;55469;48.934;12.050;2022-10-16T11:50:36;16.90;90.80
68480;DHT22;55469;48.934;12.050;2022-10-16T11:56:04;17.00;90.70
68480;DHT22;55469;48.934;12.050;2022-10-16T11:58:44;17.00;90.80
68480;DHT22;55469;48.934;12.050;2022-10-16T12:04:19;17.10;90.80
68480;DHT22;55469;48.934;12.050;2022-10-16T12:09:36;17.10;90.70
68480;DHT22;55469;48.934;12.050;2022-10-16T12:12:04;17.10;90.70
68480;DHT22;55469;48.934;12.050;2022-10-16T12:14:34;17.10;90.70
68480;DHT22;55469;48.934;12.050;2022-10-16T12:17:24;17.10;90.70
68480;DHT22;55469;48.934;12.050;2022-10-16T12:23:16;17.10;90.90
68480;DHT22;55469;48.934;12.050;2022-10-16T12:25:54;17.10;90.90
68480;DHT22;55469;48.934;12.050;2022-10-16T12:28:25;17.10;91.00
68480;DHT22;55469;48.934;12.050;2022-10-16T12:30:55;17.10;91.50
68480;DHT22;55469;48.934;12.050;2022-10-16T12:33:29;17.00;91.00
68480;DHT22;55469;48.934;12.050;2022-10-16T12:35:58;17.10;91.00
68480;DHT22;55469;48.934;12.050;2022-10-16T12:38:46;17.10;91.00
68480;DHT22;55469;48.934;12.050;2022-10-16T12:41:25;17.10;90.90
68480;DHT22;55469;48.934;12.050;2022-10-16T12:43:51;17.10;90.90
68480;DHT22;55469;48.934;12.050;2022-10-16T12:48:43;17.20;90.90
68480;DHT22;55469;48.934;12.050;2022-10-16T12:51:25;17.20;90.90
68480;DHT22;55469;48.934;12.050;2022-10-16T12:54:11;17.20;90.90
68480;DHT22;55469;48.934;12.050;2022-10-16T13:00:14;17.30;90.90
68480;DHT22;55469;48.934;12.050;2022-10-16T13:14:09;17.30;90.80
68480;DHT22;55469;48.934;12.050;2022-10-16T13:23:46;17.30;90.70
68480;DHT22;55469;48.934;12.050;2022-10-16T13:26:41;17.30;90.70
68480;DHT22;55469;48.934;12.050;2022-10-16T13:29:10;17.30;90.70
68480;DHT22;55469;48.934;12.050;2022-10-16T13:31:38;17.30;90.80
68480;DHT22;55469;48.934;12.050;2022-10-16T13:34:05;17.30;90.70
68480;DHT22;55469;48.934;12.050;2022-10-16T13:36:43;17.30;90.70
68480;DHT22;55469;48.934;12.050;2022-10-16T13:39:29;17.40;90.70
68480;DHT22;55469;48.934;12.050;2022-10-16T13:42:03;17.40;90.80
68480;DHT22;55469;48.934;12.050;2022-10-16T13:44:39;17.40;90.70
68480;DHT22;55469;48.934;12.050;2022-10-16T13:47:16;17.40;90.60
68480;DHT22;55469;48.934;12.050;2022-10-16T13:49:43;17.40;90.60
68480;DHT22;55469;48.934;12.050;2022-10-16T13:52:19;17.40;90.60
68480;DHT22;55469;48.934;12.050;2022-10-16T13:54:46;17.40;90.50
68480;DHT22;55469;48.934;12.050;2022-10-16T13:57:16;17.40;90.50
68480;DHT22;55469;48.934;12.050;2022-10-16T13:59:42;17.40;90.50
68480;DHT22;55469;48.934;12.050;2022-10-16T14:05:23;17.40;90.50
68480;DHT22;55469;48.934;12.050;2022-10-16T14:07:50;17.40;90.50
68480;DHT22;55469;48.934;12.050;2022-10-16T14:10:31;17.40;90.50
68480;DHT22;55469;48.934;12.050;2022-10-16T14:13:02;17.40;90.50
68480;DHT22;55469;48.934;12.050;2022-10-16T14:15:31;17.40;90.50
68480;DHT22;55469;48.934;12.050;2022-10-16T14:18:00;17.50;90.50
68480;DHT22;55469;48.934;12.050;2022-10-16T14:20:30;17.50;90.50
68480;DHT22;55469;48.934;12.050;2022-10-16T14:23:03;17.40;90.50
68480;DHT22;55469;48.934;12.050;2022-10-16T14:25:31;17.50;90.50
68480;DHT22;55469;48.934;12.050;2022-10-16T14:28:00;17.50;90.50
68480;DHT22;55469;48.934;12.050;2022-10-16T14:30:59;17.50;90.50
68480;DHT22;55469;48.934;12.050;2022-10-16T14:36:05;17.50;90.50
68480;DHT22;55469;48.934;12.050;2022-10-16T14:38:37;17.50;90.40
68480;DHT22;55469;48.934;12.050;2022-10-16T14:41:04;17.50;90.40
68480;DHT22;55469;48.934;12.050;2022-10-16T14:43:34;17.50;90.50
68480;DHT22;55469;48.934;12.050;2022-10-16T14:46:02;17.50;90.40
68480;DHT22;55469;48.934;12.050;2022-10-16T14:48:29;17.60;90.90
68480;DHT22;55469;48.934;12.050;2022-10-16T14:50:55;17.60;90.40
68480;DHT22;55469;48.934;12.050;2022-10-16T14:53:21;17.60;90.40
68480;DHT22;55469;48.934;12.050;2022-10-16T14:55:47;17.50;90.50
68480;DHT22;55469;48.934;12.050;2022-10-16T14:58:20;17.50;90.50
68480;DHT22;55469;48.934;12.050;2022-10-16T15:00:47;17.60;90.50
68480;DHT22;55469;48.934;12.050;2022-10-16T15:03:13;17.60;90.50
68480;DHT22;55469;48.934;12.050;2022-10-16T15:05:39;17.60;90.50
68480;DHT22;55469;48.934;12.050;2022-10-16T15:08:05;17.60;90.50
68480;DHT22;55469;48.934;12.050;2022-10-16T15:10:35;17.60;90.50
68480;DHT22;55469;48.934;12.050;2022-10-16T15:13:04;17.60;90.50
68480;DHT22;55469;48.934;12.050;2022-10-16T15:15:35;17.60;90.50
68480;DHT22;55469;48.934;12.050;2022-10-16T15:18:02;17.60;91.00
68480;DHT22;55469;48.934;12.050;2022-10-16T15:20:37;17.60;90.60
68480;DHT22;55469;48.934;12.050;2022-10-16T15:23:14;17.60;90.70
68480;DHT22;55469;48.934;12.050;2022-10-16T15:25:49;17.60;90.60
68480;DHT22;55469;48.934;12.050;2022-10-16T15:28:17;17.60;90.70
68480;DHT22;55469;48.934;12.050;2022-10-16T15:30:44;17.60;90.70
68480;DHT22;55469;48.934;12.050;2022-10-16T15:33:16;17.50;90.60
68480;DHT22;55469;48.934;12.050;2022-10-16T15:35:46;17.60;90.60
68480;DHT22;55469;48.934;12.050;2022-10-16T15:38:14;17.60;90.70
68480;DHT22;55469;48.934;12.050;2022-10-16T15:40:41;17.60;90.70
68480;DHT22;55469;48.934;12.050;2022-10-16T15:43:07;17.60;90.70
68480;DHT22;55469;48.934;12.050;2022-10-16T15:45:34;17.60;90.70
68480;DHT22;55469;48.934;12.050;2022-10-16T15:48:00;17.60;90.80
68480;DHT22;55469;48.934;12.050;2022-10-16T15:50:26;17.60;90.80
68480;DHT22;55469;48.934;12.050;2022-10-16T15:52:52;17.60;91.30
68480;DHT22;55469;48.934;12.050;2022-10-16T15:55:18;17.50;90.80
68480;DHT22;55469;48.934;12.050;2022-10-16T15:57:44;17.60;90.90
68480;DHT22;55469;48.934;12.050;2022-10-16T16:00:14;17.60;90.80
68480;DHT22;55469;48.934;12.050;2022-10-16T16:02:41;17.60;90.80
68480;DHT22;55469;48.934;12.050;2022-10-16T16:05:08;17.60;90.80
68480;DHT22;55469;48.934;12.050;2022-10-16T16:07:36;17.60;90.80
68480;DHT22;55469;48.934;12.050;2022-10-16T16:10:04;17.60;90.80
68480;DHT22;55469;48.934;12.050;2022-10-16T16:12:32;17.60;91.40
68480;DHT22;55469;48.934;12.050;2022-10-16T16:14:58;17.50;90.80
68480;DHT22;55469;48.934;12.050;2022-10-16T16:17:23;17.60;90.90
68480;DHT22;55469;48.934;12.050;2022-10-16T16:19:50;17.50;90.90
68480;DHT22;55469;48.934;12.050;2022-10-16T16:22:16;17.50;90.90
68480;DHT22;55469;48.934;12.050;2022-10-16T16:24:42;17.50;90.90
68480;DHT22;55469;48.934;12.050;2022-10-16T16:27:08;17.50;90.90
68480;DHT22;55469;48.934;12.050;2022-10-16T16:29:34;17.50;90.90
68480;DHT22;55469;48.934;12.050;2022-10-16T16:32:00;17.50;91.00
68480;DHT22;55469;48.934;12.050;2022-10-16T16:34:27;17.50;91.00
68480;DHT22;55469;48.934;12.050;2022-10-16T16:36:54;17.50;91.00
68480;DHT22;55469;48.934;12.050;2022-10-16T16:39:20;17.50;91.00
68480;DHT22;55469;48.934;12.050;2022-10-16T16:41:46;17.50;91.10
68480;DHT22;55469;48.934;12.050;2022-10-16T16:44:13;17.50;91.10
68480;DHT22;55469;48.934;12.050;2022-10-16T16:46:40;17.50;91.10
68480;DHT22;55469;48.934;12.050;2022-10-16T16:49:12;17.50;91.10
68480;DHT22;55469;48.934;12.050;2022-10-16T16:51:39;17.50;91.10
68480;DHT22;55469;48.934;12.050;2022-10-16T16:54:06;17.50;91.10
68480;DHT22;55469;48.934;12.050;2022-10-16T16:56:33;17.50;91.20
68480;DHT22;55469;48.934;12.050;2022-10-16T16:58:59;17.50;91.20
68480;DHT22;55469;48.934;12.050;2022-10-16T17:01:26;17.50;91.20
68480;DHT22;55469;48.934;12.050;2022-10-16T17:03:55;17.50;91.20
68480;DHT22;55469;48.934;12.050;2022-10-16T17:06:27;17.50;91.20
68480;DHT22;55469;48.934;12.050;2022-10-16T17:08:55;17.50;91.30
68480;DHT22;55469;48.934;12.050;2022-10-16T17:11:23;17.40;91.30
68480;DHT22;55469;48.934;12.050;2022-10-16T17:13:51;17.50;91.30
68480;DHT22;55469;48.934;12.050;2022-10-16T17:16:20;17.50;91.30
68480;DHT22;55469;48.934;12.050;2022-10-16T17:18:46;17.40;91.30